sensor_id;sensor_type;location;lat;lon;timestamp;P1;durP1;ratioP1;P2;durP2;ratioP2
77612;SDS011;66777;52.282;5.960;2023-06-01T00:00:32;36.13;;;34.17;;
77612;SDS011;66777;52.282;5.960;2023-06-01T00:02:57;41.08;;;38.97;;
77612;SDS011;66777;52.282;5.960;2023-06-01T00:05:23;37.72;;;35.60;;
77612;SDS011;66777;52.282;5.960;2023-06-01T00:07:49;41.83;;;39.55;;
77612;SDS011;66777;52.282;5.960;2023-06-01T00:10:15;39.45;;;37.53;;
77612;SDS011;66777;52.282;5.960;2023-06-01T00:12:41;41.22;;;39.17;;
77612;SDS011;66777;52.282;5.960;2023-06-01T00:15:08;42.15;;;39.92;;
77612;SDS011;66777;52.282;5.960;2023-06-01T00:17:35;40.83;;;38.60;;
77612;SDS011;66777;52.282;5.960;2023-06-01T00:20:00;40.30;;;38.10;;
77612;SDS011;66777;52.282;5.960;2023-06-01T00:22:31;44.45;;;42.20;;
77612;SDS011;66777;52.282;5.960;2023-06-01T00:24:59;40.00;;;37.72;;
77612;SDS011;66777;52.282;5.960;2023-06-01T00:27:25;43.70;;;41.28;;
77612;SDS011;66777;52.282;5.960;2023-06-01T00:29:51;40.15;;;37.95;;
77612;SDS011;66777;52.282;5.960;2023-06-01T00:32:17;38.22;;;36.20;;
77612;SDS011;66777;52.282;5.960;2023-06-01T00:34:43;41.30;;;38.95;;
77612;SDS011;66777;52.282;5.960;2023-06-01T00:37:08;56.55;;;54.05;;
77612;SDS011;66777;52.282;5.960;2023-06-01T00:39:34;40.90;;;38.63;;
77612;SDS011;66777;52.282;5.960;2023-06-01T00:41:59;36.65;;;34.47;;
77612;SDS011;66777;52.282;5.960;2023-06-01T00:44:26;59.25;;;56.03;;
77612;SDS011;66777;52.282;5.960;2023-06-01T00:46:52;38.88;;;36.72;;
77612;SDS011;66777;52.282;5.960;2023-06-01T00:49:18;40.67;;;38.33;;
77612;SDS011;66777;52.282;5.960;2023-06-01T00:51:44;41.28;;;39.05;;
77612;SDS011;66777;52.282;5.960;2023-06-01T00:54:10;38.45;;;36.45;;
77612;SDS011;66777;52.282;5.960;2023-06-01T00:56:36;37.10;;;35.00;;
77612;SDS011;66777;52.282;5.960;2023-06-01T00:59:02;40.22;;;38.03;;
77612;SDS011;66777;52.282;5.960;2023-06-01T01:01:28;40.75;;;38.30;;
77612;SDS011;66777;52.282;5.960;2023-06-01T01:03:54;43.92;;;41.10;;
77612;SDS011;66777;52.282;5.960;2023-06-01T01:06:30;42.72;;;40.58;;
77612;SDS011;66777;52.282;5.960;2023-06-01T01:11:46;39.40;;;37.05;;
77612;SDS011;66777;52.282;5.960;2023-06-01T01:14:50;41.40;;;39.15;;
77612;SDS011;66777;52.282;5.960;2023-06-01T01:17:39;40.15;;;37.65;;
77612;SDS011;66777;52.282;5.960;2023-06-01T01:26:12;54.28;;;51.42;;
77612;SDS011;66777;52.282;5.960;2023-06-01T01:28:42;39.80;;;37.58;;
77612;SDS011;66777;52.282;5.960;2023-06-01T01:31:12;38.60;;;36.38;;
77612;SDS011;66777;52.282;5.960;2023-06-01T01:33:40;35.78;;;33.88;;
77612;SDS011;66777;52.282;5.960;2023-06-01T01:36:07;56.00;;;53.35;;
77612;SDS011;66777;52.282;5.960;2023-06-01T01:38:35;36.15;;;33.90;;
77612;SDS011;66777;52.282;5.960;2023-06-01T01:41:01;41.25;;;38.90;;
77612;SDS011;66777;52.282;5.960;2023-06-01T01:43:27;39.92;;;37.60;;
77612;SDS011;66777;52.282;5.960;2023-06-01T01:45:57;40.25;;;37.85;;
77612;SDS011;66777;52.282;5.960;2023-06-01T01:48:35;35.67;;;33.60;;
77612;SDS011;66777;52.282;5.960;2023-06-01T01:51:07;36.45;;;34.22;;
77612;SDS011;66777;52.282;5.960;2023-06-01T01:53:38;36.40;;;34.15;;
77612;SDS011;66777;52.282;5.960;2023-06-01T01:56:08;37.85;;;35.80;;
77612;SDS011;66777;52.282;5.960;2023-06-01T01:58:34;39.10;;;37.05;;
77612;SDS011;66777;52.282;5.960;2023-06-01T02:01:00;37.70;;;35.33;;
77612;SDS011;66777;52.282;5.960;2023-06-01T02:03:28;38.30;;;36.00;;
77612;SDS011;66777;52.282;5.960;2023-06-01T02:05:53;38.63;;;36.60;;
77612;SDS011;66777;52.282;5.960;2023-06-01T02:08:19;34.40;;;32.28;;
77612;SDS011;66777;52.282;5.960;2023-06-01T02:10:45;35.35;;;33.20;;
77612;SDS011;66777;52.282;5.960;2023-06-01T02:13:10;35.88;;;33.78;;
77612;SDS011;66777;52.282;5.960;2023-06-01T02:15:36;37.47;;;35.28;;
77612;SDS011;66777;52.282;5.960;2023-06-01T02:18:02;39.35;;;37.03;;
77612;SDS011;66777;52.282;5.960;2023-06-01T02:20:28;34.97;;;32.83;;
77612;SDS011;66777;52.282;5.960;2023-06-01T02:22:54;46.10;;;43.55;;
77612;SDS011;66777;52.282;5.960;2023-06-01T02:25:20;50.03;;;47.53;;
77612;SDS011;66777;52.282;5.960;2023-06-01T02:27:46;35.60;;;33.53;;
77612;SDS011;66777;52.282;5.960;2023-06-01T02:30:11;43.75;;;41.20;;
77612;SDS011;66777;52.282;5.960;2023-06-01T02:32:37;39.72;;;37.22;;
77612;SDS011;66777;52.282;5.960;2023-06-01T02:35:03;38.28;;;35.95;;
77612;SDS011;66777;52.282;5.960;2023-06-01T02:37:31;34.72;;;32.58;;
77612;SDS011;66777;52.282;5.960;2023-06-01T02:39:57;38.20;;;36.05;;
77612;SDS011;66777;52.282;5.960;2023-06-01T02:42:22;36.50;;;34.40;;
77612;SDS011;66777;52.282;5.960;2023-06-01T02:44:48;35.08;;;33.05;;
77612;SDS011;66777;52.282;5.960;2023-06-01T02:47:13;35.58;;;33.55;;
77612;SDS011;66777;52.282;5.960;2023-06-01T02:49:39;47.83;;;45.33;;
77612;SDS011;66777;52.282;5.960;2023-06-01T02:52:05;32.33;;;30.25;;
77612;SDS011;66777;52.282;5.960;2023-06-01T02:54:31;37.63;;;35.45;;
77612;SDS011;66777;52.282;5.960;2023-06-01T02:56:56;36.63;;;34.47;;
77612;SDS011;66777;52.282;5.960;2023-06-01T02:59:22;38.22;;;36.03;;
77612;SDS011;66777;52.282;5.960;2023-06-01T03:01:48;36.20;;;33.83;;
77612;SDS011;66777;52.282;5.960;2023-06-01T03:04:13;39.58;;;37.28;;
77612;SDS011;66777;52.282;5.960;2023-06-01T03:06:40;36.17;;;34.15;;
77612;SDS011;66777;52.282;5.960;2023-06-01T03:09:06;36.28;;;34.03;;
77612;SDS011;66777;52.282;5.960;2023-06-01T03:11:38;37.42;;;35.40;;
77612;SDS011;66777;52.282;5.960;2023-06-01T03:14:05;38.67;;;36.42;;
77612;SDS011;66777;52.282;5.960;2023-06-01T03:16:30;37.85;;;35.63;;
77612;SDS011;66777;52.282;5.960;2023-06-01T03:18:56;36.70;;;34.38;;
77612;SDS011;66777;52.282;5.960;2023-06-01T03:21:22;33.85;;;31.73;;
77612;SDS011;66777;52.282;5.960;2023-06-01T03:23:48;37.00;;;34.83;;
77612;SDS011;66777;52.282;5.960;2023-06-01T03:26:14;37.17;;;35.10;;
77612;SDS011;66777;52.282;5.960;2023-06-01T03:28:42;35.20;;;33.05;;
77612;SDS011;66777;52.282;5.960;2023-06-01T03:31:08;33.33;;;31.25;;
77612;SDS011;66777;52.282;5.960;2023-06-01T03:33:36;35.40;;;33.28;;
77612;SDS011;66777;52.282;5.960;2023-06-01T03:36:02;36.25;;;34.25;;
77612;SDS011;66777;52.282;5.960;2023-06-01T03:38:28;40.83;;;38.65;;
77612;SDS011;66777;52.282;5.960;2023-06-01T03:40:54;37.05;;;34.92;;
77612;SDS011;66777;52.282;5.960;2023-06-01T03:43:20;38.80;;;36.22;;
77612;SDS011;66777;52.282;5.960;2023-06-01T03:45:46;38.60;;;36.17;;
77612;SDS011;66777;52.282;5.960;2023-06-01T03:48:12;35.13;;;32.47;;
77612;SDS011;66777;52.282;5.960;2023-06-01T03:50:38;37.13;;;34.85;;
77612;SDS011;66777;52.282;5.960;2023-06-01T03:53:03;35.05;;;32.92;;
77612;SDS011;66777;52.282;5.960;2023-06-01T03:55:29;34.38;;;32.17;;
77612;SDS011;66777;52.282;5.960;2023-06-01T03:57:56;38.97;;;36.72;;
77612;SDS011;66777;52.282;5.960;2023-06-01T04:00:22;34.45;;;32.35;;
77612;SDS011;66777;52.282;5.960;2023-06-01T04:02:53;51.10;;;48.50;;
77612;SDS011;66777;52.282;5.960;2023-06-01T04:05:20;35.63;;;33.17;;
77612;SDS011;66777;52.282;5.960;2023-06-01T04:07:46;36.13;;;33.80;;
77612;SDS011;66777;52.282;5.960;2023-06-01T04:10:14;38.72;;;36.03;;
77612;SDS011;66777;52.282;5.960;2023-06-01T04:12:41;36.55;;;34.33;;
77612;SDS011;66777;52.282;5.960;2023-06-01T04:15:09;35.78;;;33.60;;
77612;SDS011;66777;52.282;5.960;2023-06-01T04:17:36;37.22;;;34.80;;
77612;SDS011;66777;52.282;5.960;2023-06-01T04:20:03;30.77;;;28.92;;
77612;SDS011;66777;52.282;5.960;2023-06-01T04:22:34;37.25;;;35.13;;
77612;SDS011;66777;52.282;5.960;2023-06-01T04:25:00;51.17;;;48.40;;
77612;SDS011;66777;52.282;5.960;2023-06-01T04:27:27;37.22;;;34.97;;
77612;SDS011;66777;52.282;5.960;2023-06-01T04:29:53;40.70;;;38.63;;
77612;SDS011;66777;52.282;5.960;2023-06-01T04:32:19;56.15;;;52.90;;
77612;SDS011;66777;52.282;5.960;2023-06-01T04:34:48;35.65;;;33.50;;
77612;SDS011;66777;52.282;5.960;2023-06-01T04:37:18;38.33;;;36.00;;
77612;SDS011;66777;52.282;5.960;2023-06-01T04:39:46;52.78;;;49.92;;
77612;SDS011;66777;52.282;5.960;2023-06-01T04:42:15;54.03;;;51.20;;
77612;SDS011;66777;52.282;5.960;2023-06-01T04:44:45;53.70;;;51.10;;
77612;SDS011;66777;52.282;5.960;2023-06-01T04:47:15;42.13;;;39.97;;
77612;SDS011;66777;52.282;5.960;2023-06-01T04:49:42;38.25;;;36.08;;
77612;SDS011;66777;52.282;5.960;2023-06-01T04:52:08;51.47;;;48.90;;
77612;SDS011;66777;52.282;5.960;2023-06-01T04:54:37;58.85;;;55.97;;
77612;SDS011;66777;52.282;5.960;2023-06-01T04:57:04;55.28;;;52.67;;
77612;SDS011;66777;52.282;5.960;2023-06-01T04:59:33;53.05;;;50.35;;
77612;SDS011;66777;52.282;5.960;2023-06-01T05:01:59;41.55;;;39.08;;
77612;SDS011;66777;52.282;5.960;2023-06-01T05:04:25;37.35;;;35.15;;
77612;SDS011;66777;52.282;5.960;2023-06-01T05:06:51;37.78;;;35.75;;
77612;SDS011;66777;52.282;5.960;2023-06-01T05:09:17;56.03;;;53.22;;
77612;SDS011;66777;52.282;5.960;2023-06-01T05:11:43;41.53;;;39.25;;
77612;SDS011;66777;52.282;5.960;2023-06-01T05:14:09;55.65;;;53.15;;
77612;SDS011;66777;52.282;5.960;2023-06-01T05:16:35;40.15;;;38.03;;
77612;SDS011;66777;52.282;5.960;2023-06-01T05:19:01;60.92;;;58.25;;
77612;SDS011;66777;52.282;5.960;2023-06-01T05:21:26;41.10;;;38.88;;
77612;SDS011;66777;52.282;5.960;2023-06-01T05:23:52;42.05;;;39.83;;
77612;SDS011;66777;52.282;5.960;2023-06-01T05:26:18;54.28;;;51.97;;
77612;SDS011;66777;52.282;5.960;2023-06-01T05:28:47;65.80;;;62.92;;
77612;SDS011;66777;52.282;5.960;2023-06-01T05:31:12;39.60;;;37.45;;
77612;SDS011;66777;52.282;5.960;2023-06-01T05:33:38;56.33;;;53.67;;
77612;SDS011;66777;52.282;5.960;2023-06-01T05:36:05;39.65;;;37.45;;
77612;SDS011;66777;52.282;5.960;2023-06-01T05:38:31;43.25;;;40.88;;
77612;SDS011;66777;52.282;5.960;2023-06-01T05:40:57;61.58;;;58.55;;
77612;SDS011;66777;52.282;5.960;2023-06-01T05:43:23;56.17;;;53.42;;
77612;SDS011;66777;52.282;5.960;2023-06-01T05:45:48;59.78;;;56.97;;
77612;SDS011;66777;52.282;5.960;2023-06-01T05:48:14;56.72;;;53.85;;
77612;SDS011;66777;52.282;5.960;2023-06-01T05:50:40;58.15;;;55.17;;
77612;SDS011;66777;52.282;5.960;2023-06-01T05:53:07;57.05;;;54.13;;
77612;SDS011;66777;52.282;5.960;2023-06-01T05:55:33;60.72;;;57.90;;
77612;SDS011;66777;52.282;5.960;2023-06-01T05:57:59;44.72;;;42.45;;
77612;SDS011;66777;52.282;5.960;2023-06-01T06:00:25;45.78;;;43.53;;
77612;SDS011;66777;52.282;5.960;2023-06-01T06:02:50;62.53;;;59.47;;
77612;SDS011;66777;52.282;5.960;2023-06-01T06:05:16;44.03;;;41.72;;
77612;SDS011;66777;52.282;5.960;2023-06-01T06:07:42;59.13;;;56.53;;
77612;SDS011;66777;52.282;5.960;2023-06-01T06:10:08;71.80;;;68.65;;
77612;SDS011;66777;52.282;5.960;2023-06-01T06:12:34;49.05;;;46.35;;
77612;SDS011;66777;52.282;5.960;2023-06-01T06:15:00;64.57;;;61.38;;
77612;SDS011;66777;52.282;5.960;2023-06-01T06:17:26;67.78;;;64.53;;
77612;SDS011;66777;52.282;5.960;2023-06-01T06:19:52;64.68;;;61.55;;
77612;SDS011;66777;52.282;5.960;2023-06-01T06:22:18;46.95;;;44.65;;
77612;SDS011;66777;52.282;5.960;2023-06-01T06:24:45;47.10;;;44.72;;
77612;SDS011;66777;52.282;5.960;2023-06-01T06:27:10;68.95;;;65.70;;
77612;SDS011;66777;52.282;5.960;2023-06-01T06:29:36;64.10;;;61.47;;
77612;SDS011;66777;52.282;5.960;2023-06-01T06:32:02;71.85;;;68.68;;
77612;SDS011;66777;52.282;5.960;2023-06-01T06:34:28;68.60;;;65.60;;
77612;SDS011;66777;52.282;5.960;2023-06-01T06:37:04;74.10;;;71.18;;
77612;SDS011;66777;52.282;5.960;2023-06-01T06:39:31;70.53;;;67.45;;
77612;SDS011;66777;52.282;5.960;2023-06-01T06:41:57;64.65;;;61.90;;
77612;SDS011;66777;52.282;5.960;2023-06-01T06:44:23;75.15;;;71.90;;
77612;SDS011;66777;52.282;5.960;2023-06-01T06:46:49;75.65;;;72.68;;
77612;SDS011;66777;52.282;5.960;2023-06-01T06:49:15;74.70;;;71.65;;
77612;SDS011;66777;52.282;5.960;2023-06-01T06:51:41;70.30;;;67.15;;
77612;SDS011;66777;52.282;5.960;2023-06-01T06:54:06;82.07;;;78.50;;
77612;SDS011;66777;52.282;5.960;2023-06-01T06:56:32;50.58;;;48.20;;
77612;SDS011;66777;52.282;5.960;2023-06-01T06:58:58;74.97;;;71.85;;
77612;SDS011;66777;52.282;5.960;2023-06-01T07:01:24;53.75;;;51.20;;
77612;SDS011;66777;52.282;5.960;2023-06-01T07:03:52;73.35;;;70.35;;
77612;SDS011;66777;52.282;5.960;2023-06-01T07:06:18;75.38;;;71.88;;
77612;SDS011;66777;52.282;5.960;2023-06-01T07:08:44;77.07;;;73.75;;
77612;SDS011;66777;52.282;5.960;2023-06-01T07:11:10;75.50;;;72.35;;
77612;SDS011;66777;52.282;5.960;2023-06-01T07:13:36;77.85;;;74.57;;
77612;SDS011;66777;52.282;5.960;2023-06-01T07:16:02;83.15;;;79.50;;
77612;SDS011;66777;52.282;5.960;2023-06-01T07:18:29;82.97;;;79.50;;
77612;SDS011;66777;52.282;5.960;2023-06-01T07:20:56;58.80;;;55.88;;
77612;SDS011;66777;52.282;5.960;2023-06-01T07:23:22;80.63;;;77.25;;
77612;SDS011;66777;52.282;5.960;2023-06-01T07:25:48;81.88;;;78.60;;
77612;SDS011;66777;52.282;5.960;2023-06-01T07:28:14;58.95;;;56.45;;
77612;SDS011;66777;52.282;5.960;2023-06-01T07:30:40;81.65;;;78.45;;
77612;SDS011;66777;52.282;5.960;2023-06-01T07:33:07;82.88;;;79.47;;
77612;SDS011;66777;52.282;5.960;2023-06-01T07:35:33;86.07;;;82.78;;
77612;SDS011;66777;52.282;5.960;2023-06-01T07:37:58;78.63;;;75.60;;
77612;SDS011;66777;52.282;5.960;2023-06-01T07:40:24;92.95;;;89.57;;
77612;SDS011;66777;52.282;5.960;2023-06-01T07:42:50;84.30;;;81.18;;
77612;SDS011;66777;52.282;5.960;2023-06-01T07:45:16;88.00;;;84.85;;
77612;SDS011;66777;52.282;5.960;2023-06-01T07:47:42;82.78;;;79.45;;
77612;SDS011;66777;52.282;5.960;2023-06-01T07:50:08;60.90;;;58.08;;
77612;SDS011;66777;52.282;5.960;2023-06-01T07:52:34;96.35;;;92.80;;
77612;SDS011;66777;52.282;5.960;2023-06-01T07:54:59;91.47;;;87.90;;
77612;SDS011;66777;52.282;5.960;2023-06-01T07:57:25;91.18;;;87.78;;
77612;SDS011;66777;52.282;5.960;2023-06-01T07:59:50;94.72;;;91.15;;
77612;SDS011;66777;52.282;5.960;2023-06-01T08:02:16;96.20;;;92.50;;
77612;SDS011;66777;52.282;5.960;2023-06-01T08:04:41;106.45;;;102.80;;
77612;SDS011;66777;52.282;5.960;2023-06-01T08:07:09;92.22;;;88.50;;
77612;SDS011;66777;52.282;5.960;2023-06-01T08:09:35;102.75;;;99.10;;
77612;SDS011;66777;52.282;5.960;2023-06-01T08:12:02;97.82;;;94.30;;
77612;SDS011;66777;52.282;5.960;2023-06-01T08:14:28;102.93;;;99.00;;
77612;SDS011;66777;52.282;5.960;2023-06-01T08:16:57;77.80;;;74.55;;
77612;SDS011;66777;52.282;5.960;2023-06-01T08:19:22;103.47;;;99.88;;
77612;SDS011;66777;52.282;5.960;2023-06-01T08:21:48;99.85;;;96.18;;
77612;SDS011;66777;52.282;5.960;2023-06-01T08:24:13;103.75;;;100.03;;
77612;SDS011;66777;52.282;5.960;2023-06-01T08:26:40;101.07;;;97.47;;
77612;SDS011;66777;52.282;5.960;2023-06-01T08:29:06;107.60;;;103.70;;
77612;SDS011;66777;52.282;5.960;2023-06-01T08:31:32;110.53;;;106.28;;
77612;SDS011;66777;52.282;5.960;2023-06-01T08:33:57;113.60;;;109.63;;
77612;SDS011;66777;52.282;5.960;2023-06-01T08:36:23;121.00;;;116.70;;
77612;SDS011;66777;52.282;5.960;2023-06-01T08:38:48;119.15;;;114.75;;
77612;SDS011;66777;52.282;5.960;2023-06-01T08:44:05;120.85;;;116.78;;
77612;SDS011;66777;52.282;5.960;2023-06-01T08:46:34;119.10;;;114.95;;
77612;SDS011;66777;52.282;5.960;2023-06-01T08:49:00;114.15;;;110.07;;
77612;SDS011;66777;52.282;5.960;2023-06-01T08:51:26;113.28;;;109.28;;
77612;SDS011;66777;52.282;5.960;2023-06-01T08:53:53;115.60;;;111.63;;
77612;SDS011;66777;52.282;5.960;2023-06-01T08:56:22;123.78;;;119.57;;
77612;SDS011;66777;52.282;5.960;2023-06-01T08:58:47;125.78;;;121.55;;
77612;SDS011;66777;52.282;5.960;2023-06-01T09:01:16;129.60;;;125.32;;
77612;SDS011;66777;52.282;5.960;2023-06-01T09:03:46;131.75;;;127.35;;
77612;SDS011;66777;52.282;5.960;2023-06-01T09:06:13;131.30;;;127.00;;
77612;SDS011;66777;52.282;5.960;2023-06-01T09:08:39;128.05;;;123.57;;
77612;SDS011;66777;52.282;5.960;2023-06-01T09:11:04;134.40;;;130.05;;
77612;SDS011;66777;52.282;5.960;2023-06-01T09:13:33;136.30;;;131.93;;
77612;SDS011;66777;52.282;5.960;2023-06-01T09:16:00;135.48;;;131.07;;
77612;SDS011;66777;52.282;5.960;2023-06-01T09:18:26;94.03;;;90.72;;
77612;SDS011;66777;52.282;5.960;2023-06-01T09:20:52;132.43;;;127.85;;
77612;SDS011;66777;52.282;5.960;2023-06-01T09:23:25;131.52;;;127.03;;
77612;SDS011;66777;52.282;5.960;2023-06-01T09:26:08;129.15;;;124.72;;
77612;SDS011;66777;52.282;5.960;2023-06-01T09:34:03;131.05;;;126.65;;
77612;SDS011;66777;52.282;5.960;2023-06-01T09:36:29;146.80;;;142.13;;
77612;SDS011;66777;52.282;5.960;2023-06-01T09:39:05;155.15;;;149.93;;
77612;SDS011;66777;52.282;5.960;2023-06-01T09:41:48;166.88;;;161.77;;
77612;SDS011;66777;52.282;5.960;2023-06-01T09:44:26;123.07;;;118.78;;
77612;SDS011;66777;52.282;5.960;2023-06-01T09:46:52;170.05;;;164.73;;
77612;SDS011;66777;52.282;5.960;2023-06-01T09:49:29;171.23;;;166.00;;
77612;SDS011;66777;52.282;5.960;2023-06-01T09:52:07;170.95;;;165.77;;
77612;SDS011;66777;52.282;5.960;2023-06-01T09:54:39;159.35;;;154.25;;
77612;SDS011;66777;52.282;5.960;2023-06-01T09:57:26;151.45;;;146.57;;
77612;SDS011;66777;52.282;5.960;2023-06-01T09:59:54;117.07;;;112.90;;
77612;SDS011;66777;52.282;5.960;2023-06-01T10:02:20;161.13;;;156.05;;
77612;SDS011;66777;52.282;5.960;2023-06-01T10:04:48;166.15;;;161.02;;
77612;SDS011;66777;52.282;5.960;2023-06-01T10:07:23;166.00;;;160.38;;
77612;SDS011;66777;52.282;5.960;2023-06-01T10:09:52;180.95;;;175.52;;
77612;SDS011;66777;52.282;5.960;2023-06-01T10:12:20;186.77;;;181.00;;
77612;SDS011;66777;52.282;5.960;2023-06-01T10:14:47;177.30;;;171.60;;
77612;SDS011;66777;52.282;5.960;2023-06-01T10:17:14;172.65;;;167.48;;
77612;SDS011;66777;52.282;5.960;2023-06-01T10:19:41;158.27;;;153.20;;
77612;SDS011;66777;52.282;5.960;2023-06-01T10:22:07;181.57;;;175.60;;
77612;SDS011;66777;52.282;5.960;2023-06-01T10:24:32;183.05;;;177.70;;
77612;SDS011;66777;52.282;5.960;2023-06-01T10:29:41;187.07;;;181.30;;
77612;SDS011;66777;52.282;5.960;2023-06-01T10:35:02;193.27;;;187.63;;
77612;SDS011;66777;52.282;5.960;2023-06-01T10:37:28;201.98;;;196.05;;
77612;SDS011;66777;52.282;5.960;2023-06-01T10:40:09;204.60;;;198.73;;
77612;SDS011;66777;52.282;5.960;2023-06-01T10:42:47;196.80;;;190.98;;
77612;SDS011;66777;52.282;5.960;2023-06-01T10:47:58;213.40;;;207.07;;
77612;SDS011;66777;52.282;5.960;2023-06-01T10:50:25;180.73;;;175.10;;
77612;SDS011;66777;52.282;5.960;2023-06-01T10:52:52;213.05;;;207.05;;
77612;SDS011;66777;52.282;5.960;2023-06-01T10:55:28;212.85;;;206.75;;
77612;SDS011;66777;52.282;5.960;2023-06-01T11:00:46;214.10;;;207.98;;
77612;SDS011;66777;52.282;5.960;2023-06-01T11:03:12;216.63;;;210.45;;
77612;SDS011;66777;52.282;5.960;2023-06-01T11:05:39;215.75;;;209.43;;
77612;SDS011;66777;52.282;5.960;2023-06-01T11:13:29;249.68;;;243.27;;
77612;SDS011;66777;52.282;5.960;2023-06-01T11:18:51;254.43;;;247.55;;
77612;SDS011;66777;52.282;5.960;2023-06-01T11:23:49;246.18;;;239.68;;
77612;SDS011;66777;52.282;5.960;2023-06-01T11:26:21;242.63;;;236.05;;
77612;SDS011;66777;52.282;5.960;2023-06-01T11:28:50;187.20;;;181.75;;
77612;SDS011;66777;52.282;5.960;2023-06-01T11:31:18;256.67;;;249.98;;
77612;SDS011;66777;52.282;5.960;2023-06-01T11:33:54;237.30;;;230.93;;
77612;SDS011;66777;52.282;5.960;2023-06-01T11:36:25;254.65;;;247.65;;
77612;SDS011;66777;52.282;5.960;2023-06-01T11:38:51;265.77;;;258.92;;
77612;SDS011;66777;52.282;5.960;2023-06-01T11:41:21;218.75;;;212.90;;
77612;SDS011;66777;52.282;5.960;2023-06-01T11:43:57;278.73;;;271.77;;
77612;SDS011;66777;52.282;5.960;2023-06-01T11:46:23;286.10;;;278.92;;
77612;SDS011;66777;52.282;5.960;2023-06-01T11:49:01;271.60;;;264.48;;
77612;SDS011;66777;52.282;5.960;2023-06-01T11:51:30;288.02;;;280.80;;
77612;SDS011;66777;52.282;5.960;2023-06-01T11:54:01;282.00;;;274.90;;
77612;SDS011;66777;52.282;5.960;2023-06-01T11:56:31;289.48;;;282.10;;
77612;SDS011;66777;52.282;5.960;2023-06-01T11:59:02;300.30;;;292.63;;
77612;SDS011;66777;52.282;5.960;2023-06-01T12:01:33;324.27;;;316.48;;
77612;SDS011;66777;52.282;5.960;2023-06-01T12:03:59;317.45;;;309.58;;
77612;SDS011;66777;52.282;5.960;2023-06-01T12:06:27;309.80;;;302.17;;
77612;SDS011;66777;52.282;5.960;2023-06-01T12:08:53;296.40;;;288.98;;
77612;SDS011;66777;52.282;5.960;2023-06-01T12:11:29;246.95;;;240.20;;
77612;SDS011;66777;52.282;5.960;2023-06-01T12:13:55;293.20;;;285.77;;
77612;SDS011;66777;52.282;5.960;2023-06-01T12:16:21;285.75;;;278.33;;
77612;SDS011;66777;52.282;5.960;2023-06-01T12:18:47;271.60;;;264.80;;
77612;SDS011;66777;52.282;5.960;2023-06-01T12:21:13;271.60;;;264.65;;
77612;SDS011;66777;52.282;5.960;2023-06-01T12:23:39;254.40;;;247.77;;
77612;SDS011;66777;52.282;5.960;2023-06-01T12:26:06;246.43;;;239.88;;
77612;SDS011;66777;52.282;5.960;2023-06-01T12:28:52;184.98;;;179.45;;
77612;SDS011;66777;52.282;5.960;2023-06-01T12:31:19;217.13;;;211.13;;
77612;SDS011;66777;52.282;5.960;2023-06-01T12:33:47;209.45;;;203.63;;
77612;SDS011;66777;52.282;5.960;2023-06-01T12:36:37;194.70;;;189.07;;
77612;SDS011;66777;52.282;5.960;2023-06-01T12:39:03;198.13;;;192.43;;
77612;SDS011;66777;52.282;5.960;2023-06-01T12:41:30;195.50;;;189.93;;
77612;SDS011;66777;52.282;5.960;2023-06-01T12:43:56;138.52;;;133.95;;
77612;SDS011;66777;52.282;5.960;2023-06-01T12:51:18;168.27;;;163.05;;
77612;SDS011;66777;52.282;5.960;2023-06-01T12:53:45;124.28;;;120.00;;
77612;SDS011;66777;52.282;5.960;2023-06-01T12:56:11;174.25;;;168.70;;
77612;SDS011;66777;52.282;5.960;2023-06-01T12:58:37;166.30;;;161.27;;
77612;SDS011;66777;52.282;5.960;2023-06-01T13:01:03;177.95;;;172.45;;
77612;SDS011;66777;52.282;5.960;2023-06-01T13:03:30;122.28;;;118.18;;
77612;SDS011;66777;52.282;5.960;2023-06-01T13:05:56;176.82;;;171.43;;
77612;SDS011;66777;52.282;5.960;2023-06-01T13:08:22;178.75;;;173.23;;
77612;SDS011;66777;52.282;5.960;2023-06-01T13:10:48;118.95;;;114.82;;
77612;SDS011;66777;52.282;5.960;2023-06-01T13:13:15;171.07;;;165.80;;
77612;SDS011;66777;52.282;5.960;2023-06-01T13:15:41;164.48;;;159.32;;
77612;SDS011;66777;52.282;5.960;2023-06-01T13:18:07;163.82;;;158.90;;
77612;SDS011;66777;52.282;5.960;2023-06-01T13:20:34;166.15;;;160.88;;
77612;SDS011;66777;52.282;5.960;2023-06-01T13:23:01;174.43;;;168.95;;
77612;SDS011;66777;52.282;5.960;2023-06-01T13:25:27;173.98;;;168.60;;
77612;SDS011;66777;52.282;5.960;2023-06-01T13:27:52;169.98;;;164.77;;
77612;SDS011;66777;52.282;5.960;2023-06-01T13:30:18;174.00;;;168.75;;
77612;SDS011;66777;52.282;5.960;2023-06-01T13:32:44;159.57;;;154.35;;
77612;SDS011;66777;52.282;5.960;2023-06-01T13:35:10;153.43;;;148.55;;
77612;SDS011;66777;52.282;5.960;2023-06-01T13:37:36;165.35;;;160.30;;
77612;SDS011;66777;52.282;5.960;2023-06-01T13:40:02;159.63;;;154.52;;
77612;SDS011;66777;52.282;5.960;2023-06-01T13:42:31;119.50;;;115.47;;
77612;SDS011;66777;52.282;5.960;2023-06-01T13:44:59;151.77;;;147.10;;
77612;SDS011;66777;52.282;5.960;2023-06-01T13:47:25;115.15;;;111.22;;
77612;SDS011;66777;52.282;5.960;2023-06-01T13:49:51;142.32;;;137.55;;
77612;SDS011;66777;52.282;5.960;2023-06-01T13:52:17;149.68;;;145.15;;
77612;SDS011;66777;52.282;5.960;2023-06-01T13:54:43;150.15;;;145.18;;
77612;SDS011;66777;52.282;5.960;2023-06-01T13:57:09;142.57;;;137.90;;
77612;SDS011;66777;52.282;5.960;2023-06-01T13:59:35;143.73;;;139.20;;
77612;SDS011;66777;52.282;5.960;2023-06-01T14:02:01;147.43;;;142.30;;
77612;SDS011;66777;52.282;5.960;2023-06-01T14:04:28;148.65;;;143.93;;
77612;SDS011;66777;52.282;5.960;2023-06-01T14:06:55;105.75;;;102.18;;
77612;SDS011;66777;52.282;5.960;2023-06-01T14:09:21;151.25;;;146.40;;
77612;SDS011;66777;52.282;5.960;2023-06-01T14:11:48;143.90;;;139.13;;
77612;SDS011;66777;52.282;5.960;2023-06-01T14:14:14;150.82;;;146.13;;
77612;SDS011;66777;52.282;5.960;2023-06-01T14:16:40;145.68;;;141.13;;
77612;SDS011;66777;52.282;5.960;2023-06-01T14:19:06;142.68;;;138.15;;
77612;SDS011;66777;52.282;5.960;2023-06-01T14:21:32;136.98;;;132.40;;
77612;SDS011;66777;52.282;5.960;2023-06-01T14:23:59;102.45;;;98.82;;
77612;SDS011;66777;52.282;5.960;2023-06-01T14:26:25;142.95;;;138.50;;
77612;SDS011;66777;52.282;5.960;2023-06-01T14:28:52;100.93;;;97.28;;
77612;SDS011;66777;52.282;5.960;2023-06-01T14:31:18;98.18;;;94.65;;
77612;SDS011;66777;52.282;5.960;2023-06-01T14:33:45;114.10;;;110.38;;
77612;SDS011;66777;52.282;5.960;2023-06-01T14:36:10;144.27;;;139.88;;
77612;SDS011;66777;52.282;5.960;2023-06-01T14:38:36;145.48;;;141.00;;
77612;SDS011;66777;52.282;5.960;2023-06-01T14:41:02;150.07;;;145.60;;
77612;SDS011;66777;52.282;5.960;2023-06-01T14:43:28;146.70;;;142.40;;
77612;SDS011;66777;52.282;5.960;2023-06-01T14:45:55;146.52;;;142.13;;
77612;SDS011;66777;52.282;5.960;2023-06-01T14:48:21;158.07;;;153.27;;
77612;SDS011;66777;52.282;5.960;2023-06-01T14:50:47;148.43;;;143.73;;
77612;SDS011;66777;52.282;5.960;2023-06-01T14:53:12;144.93;;;139.90;;
77612;SDS011;66777;52.282;5.960;2023-06-01T14:55:39;137.27;;;132.98;;